AirNav   Pilot Hours Calculator
 
 995 users online  

1FL Fort Pierce Seaplane Base
Fort Pierce, Florida, USA


FAA INFORMATION EFFECTIVE 26 JANUARY 2023

Location

FAA Identifier: 1FL
Lat/Long: 27-26-29.8100N 080-18-16.8200W
27-26.496833N 080-18.280333W
27.4416139,-80.3046722
(estimated)
Elevation: -2 ft. / -1 m (estimated)
From city: 1 mile NE of FORT PIERCE, FL
Time zone: UTC -5 (UTC -4 during Daylight Saving Time)
Zip code: 34949

Seaplane Base Operations

Seaplane Base use: Open to the public
Activation date: 05/2020
Control tower: no
ARTCC: MIAMI CENTER
FSS: MIAMI FLIGHT SERVICE STATION
Attendance: 
Segmented circle: no

Seaplane Base Communications

CTAF: 122.9
WX ASOS at FPR (5 nm NW): PHONE 772-489-4281
WX ASOS at VRB (14 nm NW): 120.575 (772-978-9535)
WX AWOS-3 at SUA (16 nm S): 134.475 (772-692-7399)

Nearby radio navigation aids

VOR radial/distance  VOR name  Freq  Var
TRVr152/17.3TREASURE VORTAC117.3007W

 
NDB name  Hdg/Dist  Freq  Var  ID
UNITED008/32.040505WUTX ..- - -..-

Seaplane Base Services

Runway Information

Runway 16W/34W

Dimensions: 3000 x 200 ft. / 914 x 61 m
Surface: water, in fair condition
RUNWAY 16W  RUNWAY 34W
Latitude: 27-26.729833N27-26.263667N
Longitude: 080-18.373833W080-18.186833W
Elevation: -2.0 ft.-2.0 ft.
Traffic pattern: leftleft
Touchdown point: yes, no lightsno, no lights

Seaplane Base Ownership and Management from official FAA records

Ownership: Publicly-owned
Owner: CITY OF FORT PIERCE
100 N US HIGHWAY 1
FORT PIERCE, FL 34950
Phone 772-467-3000
Manager: NICK MIMMS
100 N US HIGHWAY 1
FORT PIERCE, FL 34950
Phone 772-467-3000

Seaplane Base Operational Statistics

Aircraft based on the field: 2
Single engine airplanes: 1
Helicopters: 1
    

Instrument Procedures

There are no published instrument procedures at 1FL.

Some nearby airports with instrument procedures:

KFPR - Treasure Coast International Airport (5 nm NW)
KVRB - Vero Beach Regional Airport (14 nm NW)
KSUA - Witham Field Airport (16 nm S)
X26 - Sebastian Municipal Airport (24 nm NW)
KOBE - Okeechobee County Airport (31 nm W)
 
Loc | Ops | Rwys | IFR | FBO | Links
Com | Nav | Svcs | Stats | Notes


 
Aerial photo
No photo
 
Airport distance calculator
Flying to Fort Pierce Seaplane Base? Find the distance to fly.

From to 1FL

Sunrise and sunset
Times for 05-Feb-2023
 Local
(UTC-5)
 Zulu
(UTC)
Morning civil twilight06:4211:42
Sunrise07:0612:06
Sunset18:0423:04
Evening civil twilight18:2923:29

Current date and time
Zulu (UTC)  06-Feb-2023 01:14:43
Local (UTC-5)  05-Feb-2023 20:14:43
 
METAR
KFPR 
5nm NW 
060053Z 31003KT 9SM CLR 17/16 A3010 RMK AO2 SLP192 T01670161
KVRB 
14nm NW 
060053Z 00000KT 10SM CLR 17/17 A3010 RMK AO2 SLP193 T01670167
KSUA 
16nm S 
060048Z 34003KT 10SM FEW040 19/16 A3012
TAF
KFPR 
5nm NW 
051848Z 0519/0618 32012G18KT P6SM -RA SCT006 OVC020 TEMPO 0519/0520 2SM +SHRA BKN006 OVC035 FM052100 33009KT P6SM VCSH SCT015 BKN035 FM060100 36006KT P6SM BKN050 FM061400 36008KT P6SM SCT040
KVRB 
14nm NW 
052201Z 0522/0618 33010KT P6SM SCT010 BKN060 BKN100 TEMPO 0522/0523 BKN010 BKN016 FM060100 34006KT P6SM BKN050 FM061400 36010KT P6SM SCT040
KSUA 
16nm S 
052102Z 0521/0618 32010G19KT P6SM VCSH SCT009 SCT012 BKN035 TEMPO 0521/0522 4SM BR BKN009 OVC012 FM060100 36006KT P6SM BKN050 FM061400 36008KT P6SM SCT040 AMD NOT SKED
NOTAMs
Click for the latest NOTAMs
NOTAMs are issued by the DoD/FAA and will open in a separate window not controlled by AirNav.

 

 
 

Would you like to see your business listed on this page?

 If your business provides an interesting product or service to pilots, flight crews, aircraft, or users of the Fort Pierce Seaplane Base, you should consider listing it here.  To start the listing process, click on the button below
 
Add a business
 

Other Pages about Fort Pierce Seaplane Base

Update a link
 
Copyright © AirNav, LLC. All rights reserved. Privacy Policy  Contact